Aérodrome :
LOGIN :

S'inscrire | Disclaimer

   EN    FR    IT 

 










Légende :    VFR   VFR Marginal   IFR   IFR Intensif   IFR Très Intensif
Visi : 
Plafond : 
>= 8 km
>= 3000ft
5 à 8 km
1000 à 3000 ft
1500m à 5 km
500 à 1000 ft
800 à 1500m
200 à 500 ft
< 800m
< 200 ft
Symboles :   Orages  Brouillard  Fortes neiges  Fortes précipitations  Vent > 20 kt
SIGMETs :   Divers  Orages  Givrage  Turbulence  Onde Orograph.  Cendres Volcan.







- Altitude de l'aérodrome : 15 ft
- Code IATA : BHD
- Voir les cartes d'approche


EGAC - George Best Belfast City

DERNIER METAR :
  • 172020Z 19016KT 9999 FEW049 06/04 Q1024

METARs EXPIRÉS :
  • 171950Z 20015KT CAVOK 06/04 Q1024
  • 171920Z 21013KT 9999 FEW028 BKN049 06/04 Q1024
  • 171850Z 21012KT 9999 FEW011 SCT045 06/04 Q1024
  • 171820Z 20011KT 9999 FEW011 SCT025 BKN037 07/04 Q1025

TAF AMD TAF EGAC
Valide du 17 à 20h jusqu'au 17 à 22h UTC


172002Z 1720/1722 22010KT 9999 FEW020 SCT045
ATIS : +44 02890 935 124
Pas de NOTAMs connus pour ce terrain.
1 SIGMET publié pour la FIR Scottish (EGPX) :
 
Turbulence forte
EGPX SIGMET 05 VALID 171800/172200 EGRR
EGPX SCOTTISH FIR SEV TURB FCST NE OF LINE N5938 W01000 - N5749 E00337 SFC/FL060 MOV S 05KT NC=



MET'MAP, la Météo Aéronautique d'un coup d'oeil ! - Copyright ORBIFLY Décembre 2007 - Disclaimer

ORBIFLY MET'MAP TEAM :

Programmation & Développement : Alexandra Zaïnal
Conception & Développement : Baudouin d'Aumeries
Co-Programmation & Développement : Marc-Olivier Méhu
Soutien technique & logistique : Manuel Goepfert

Contact : metmap@orbifly.com




SOURCES & CREDITS :

   NOAA